M I D A S
Marine Information and Data Acquisition System
Tripno 1254 of the Zeeleeuw from 2007-01-08 07:48:13 to 2007-01-08 10:38:09
Back to CruiseResearch ActivitiesStationsMapUnderway DataData graphs

EquipmentUnitsComment
TimeDGPSUTC
LatitudeDGPSDM.mWGS84
LongitudeDGPSDM.mWGS84
TemperatureSBE03/SBE38deg celciusITS90
ConductivitySBE21S/mITS90
SalinitySBE21 Practical Salinity Units
ChlorophylAChelsea fluorimeterg/lCalibrated in Aceton
Missing or incorrect values are displayed as -999
Sea surface data collected by the RV Zeeleeuw from 2007-01-08 07:44:18 to 2007-01-08 10:48:54
Time Latitude Longitude Temperature Conductivity Salinity ChlorophylA
2007-01-08 07:45:24 51°13.6 2°56.094 8.6542 3.184351 28.442994 -2.871232
2007-01-08 07:46:24 51°13.599 2°56.094 8.6483 3.227716 28.915765 -2.871232
2007-01-08 07:47:24 51°13.599 2°56.095 8.6205 3.231028 28.960209 -2.871232
2007-01-08 07:48:24 51°13.6 2°56.095 8.6042 3.260424 29.273878 -2.871232
2007-01-08 07:49:24 51°13.598 2°56.091 8.6246 3.263529 29.326718 -2.871232
2007-01-08 07:50:24 51°13.61 2°56.043 8.6283 3.087081 27.501118 -2.871232
2007-01-08 07:51:24 51°13.639 2°55.96 8.5395 3.157963 28.297214 -2.871232
2007-01-08 07:52:24 51°13.678 2°55.875 8.5274 3.190045 28.655971 -2.871232
2007-01-08 07:53:24 51°13.713 2°55.782 8.4979 3.174418 28.519124 -2.871232
2007-01-08 07:54:24 51°13.731 2°55.71 8.441 3.079634 27.611322 -2.871232
2007-01-08 07:55:23 51°13.74 2°55.726 8.4284 3.002352 26.879078 -2.871232
2007-01-08 07:56:24 51°13.73 2°55.714 8.4233 2.976491 26.63518 -2.871232
2007-01-08 07:57:23 51°13.746 2°55.71 8.3744 3.011973 26.986496 -2.871232
2007-01-08 07:58:24 51°13.809 2°55.652 8.3415 2.815564 25.101011 -2.871232
2007-01-08 07:59:23 51°13.905 2°55.58 8.4075 2.781958 24.77537 -2.871232
2007-01-08 08:00:24 51°14.015 2°55.504 8.4516 3.061115 27.4708 -2.871232
2007-01-08 08:01:24 51°14.122 2°55.427 8.4289 3.08667 27.710802 -2.871232
2007-01-08 08:02:24 51°14.224 2°55.322 8.4025 2.984353 26.722158 -2.871232
2007-01-08 08:03:24 51°14.323 2°55.147 8.4042 2.860857 25.525506 -2.871232
2007-01-08 08:04:23 51°14.411 2°54.928 8.4561 2.957458 26.458751 -2.871232
2007-01-08 08:05:24 51°14.433 2°54.634 8.5233 3.197497 28.796475 -2.871232
2007-01-08 08:06:23 51°14.364 2°54.317 8.5829 3.380406 30.555526 -2.871232
2007-01-08 08:07:24 51°14.256 2°53.994 8.6179 3.456303 31.271228 -2.871232
2007-01-08 08:08:23 51°14.15 2°53.676 8.7096 3.496586 31.616697 -2.871232
2007-01-08 08:09:23 51°14.037 2°53.353 8.7198 3.522788 31.835579 -2.871232
2007-01-08 08:10:23 51°13.915 2°53.036 8.7357 3.528898 31.886688 -2.871232
2007-01-08 08:11:23 51°13.793 2°52.718 8.7493 3.533662 31.9183 -2.871232
2007-01-08 08:12:24 51°13.668 2°52.394 8.7731 3.535112 31.922616 -2.871232
2007-01-08 08:13:23 51°13.548 2°52.08 8.7844 3.539462 31.952601 -2.871232
2007-01-08 08:14:24 51°13.427 2°51.754 8.7791 3.540187 31.950491 -2.871232
2007-01-08 08:15:23 51°13.309 2°51.44 8.7756 3.538116 31.928021 -2.871232
2007-01-08 08:16:24 51°13.186 2°51.116 8.7759 3.535733 31.9084 -2.871232
2007-01-08 08:17:24 51°13.065 2°50.793 8.7861 3.533248 31.880082 -2.871232
2007-01-08 08:18:24 51°12.948 2°50.466 8.7931 3.535215 31.892146 -2.871232
2007-01-08 08:19:24 51°12.833 2°50.136 8.7959 3.538115 31.912695 -2.871232
2007-01-08 08:20:24 51°12.72 2°49.806 8.8134 3.54143 31.941644 -2.871232
2007-01-08 08:21:24 51°12.607 2°49.473 8.8337 3.546297 31.972519 -2.871232
2007-01-08 08:22:24 51°12.493 2°49.144 8.8443 3.549197 31.98878 -2.871232
2007-01-08 08:23:24 51°12.381 2°48.813 8.8536 3.551269 31.999293 -2.871232
2007-01-08 08:24:23 51°12.27 2°48.487 8.8678 3.554065 32.015354 -2.871232
2007-01-08 08:25:24 51°12.155 2°48.15 8.8811 3.557069 32.035184 -2.871232
2007-01-08 08:26:24 51°12.042 2°47.817 8.8883 3.56059 32.057627 -2.871232
2007-01-08 08:27:23 51°11.931 2°47.49 8.9054 3.560901 32.05221 -2.871232
2007-01-08 08:28:24 51°11.817 2°47.152 8.9142 3.567737 32.10522 -2.871232
2007-01-08 08:29:23 51°11.707 2°46.824 8.9241 3.571051 32.129825 -2.871232
2007-01-08 08:30:24 51°11.593 2°46.484 8.9301 3.57364 32.149736 -2.871232
2007-01-08 08:31:23 51°11.489 2°46.149 8.9387 3.576644 32.172075 -2.871232
2007-01-08 08:32:24 51°11.384 2°45.803 8.9447 3.579441 32.194901 -2.871232
2007-01-08 08:33:23 51°11.281 2°45.468 8.9554 3.583273 32.224655 -2.871232
2007-01-08 08:34:24 51°11.176 2°45.123 8.9631 3.586795 32.249582 -2.871232
2007-01-08 08:35:24 51°11.072 2°44.783 8.973 3.589384 32.269465 -2.871232
2007-01-08 08:36:24 51°10.971 2°44.442 8.9789 3.592492 32.291949 -2.871232
2007-01-08 08:37:24 51°10.868 2°44.102 8.9798 3.590731 32.270075 -2.871232
2007-01-08 08:38:24 51°10.766 2°43.762 8.9739 3.585552 32.220057 -2.871232
2007-01-08 08:39:24 51°10.665 2°43.423 8.9834 3.584516 32.207149 -2.871232
2007-01-08 08:40:24 51°10.565 2°43.086 8.9816 3.583169 32.192849 -2.871232
2007-01-08 08:41:24 51°10.464 2°42.752 8.9788 3.583687 32.198021 -2.871232
2007-01-08 08:42:24 51°10.366 2°42.415 8.9758 3.575297 32.115111 -2.871232
2007-01-08 08:43:24 51°10.269 2°42.081 8.9711 3.575401 32.117849 -2.871232
2007-01-08 08:44:24 51°10.174 2°41.744 8.9627 3.552614 31.900647 -2.871232
2007-01-08 08:45:24 51°10.089 2°41.4 8.9777 3.560589 31.978523 -2.871232
2007-01-08 08:46:24 51°9.995 2°41.061 8.9995 3.592699 32.282884 -2.871232
2007-01-08 08:47:24 51°9.912 2°40.713 9.014 3.609376 32.431447 -2.871232
2007-01-08 08:48:24 51°9.827 2°40.366 9.0253 3.618803 32.515287 -2.871232
2007-01-08 08:49:24 51°9.738 2°40.02 9.0332 3.622221 32.539955 -2.871232
2007-01-08 08:50:24 51°9.651 2°39.671 9.0352 3.622325 32.537542 -2.871232
2007-01-08 08:51:24 51°9.562 2°39.322 9.0352 3.624189 32.553579 -2.871232
2007-01-08 08:52:24 51°9.478 2°38.971 9.0362 3.626158 32.572375 -2.871232
2007-01-08 08:53:24 51°9.39 2°38.621 9.0419 3.627608 32.583409 -2.871232
2007-01-08 08:54:24 51°9.307 2°38.268 9.0511 3.628851 32.588921 -2.871232
2007-01-08 08:55:24 51°9.223 2°37.916 9.0553 3.629161 32.58426 -2.871232
2007-01-08 08:56:24 51°9.139 2°37.569 9.0645 3.629783 32.584427 -2.871232
2007-01-08 08:57:24 51°9.1 2°37.322 9.0635 3.631337 32.593038 -2.871232
2007-01-08 08:58:24 51°9.116 2°37.206 9.0592 3.632166 32.606487 -2.871232
2007-01-08 08:59:24 51°9.112 2°37.186 9.0587 3.632684 32.61511 -2.871232
2007-01-08 09:00:24 51°9.136 2°37.179 9.0609 3.633098 32.618384 -2.871232
2007-01-08 09:01:24 51°9.16 2°37.176 9.0679 3.633616 32.620965 -2.871232
2007-01-08 09:02:24 51°9.156 2°37.169 9.0654 3.634237 32.622854 -2.871232
2007-01-08 09:03:24 51°9.151 2°37.163 9.0617 3.633927 32.624068 -2.871232
2007-01-08 09:04:24 51°9.147 2°37.156 9.0606 3.633616 32.622692 -2.871232
2007-01-08 09:05:24 51°9.14 2°37.149 9.058 3.633512 32.621658 -2.871232
2007-01-08 09:06:24 51°9.134 2°37.141 9.0592 3.633305 32.620453 -2.871232
2007-01-08 09:07:24 51°9.128 2°37.135 9.0588 3.633202 32.619418 -2.871232
2007-01-08 09:08:24 51°9.122 2°37.127 9.0584 3.632994 32.61735 -2.871232
2007-01-08 09:09:24 51°9.117 2°37.121 9.0582 3.632891 32.617179 -2.871232
2007-01-08 09:10:24 51°9.111 2°37.114 9.0601 3.632787 32.616144 -2.871232
2007-01-08 09:11:24 51°9.105 2°37.108 9.0595 3.63258 32.615802 -2.871232
2007-01-08 09:12:24 51°9.1 2°37.102 9.0607 3.632476 32.613905 -2.871232
2007-01-08 09:13:24 51°9.097 2°37.097 9.0595 3.632373 32.612007 -2.871232
2007-01-08 09:14:24 51°9.142 2°37.126 9.067 3.63258 32.60976 -2.871232
2007-01-08 09:15:24 51°9.175 2°37.17 9.0627 3.632684 32.609069 -2.871232
2007-01-08 09:16:23 51°9.179 2°37.172 9.0607 3.632269 32.608384 -2.871232
2007-01-08 09:17:24 51°9.181 2°37.166 9.0623 3.632166 32.60735 -2.871232
2007-01-08 09:18:24 51°9.182 2°37.158 9.0607 3.632166 32.605624 -2.871232
2007-01-08 09:19:24 51°9.178 2°37.149 9.0815 3.632891 32.604234 -2.871232
2007-01-08 09:20:24 51°9.174 2°37.141 9.0745 3.633512 32.603537 -2.871232
2007-01-08 09:21:24 51°9.17 2°37.134 9.0716 3.632891 32.603372 -2.871232
2007-01-08 09:22:24 51°9.165 2°37.128 9.0614 3.632269 32.604069 -2.871232
2007-01-08 09:23:24 51°9.16 2°37.121 9.0634 3.631855 32.602522 -2.871232
2007-01-08 09:24:25 51°9.155 2°37.116 9.0597 3.63144 32.600973 -2.871232
2007-01-08 09:25:25 51°9.152 2°37.11 9.0589 3.631026 32.600288 -2.871232
2007-01-08 09:26:23 51°9.148 2°37.103 9.0599 3.63113 32.598734 -2.871232
2007-01-08 09:27:24 51°9.145 2°37.096 9.0652 3.63113 32.597871 -2.871232
2007-01-08 09:28:24 51°9.142 2°37.088 9.0743 3.631337 32.595626 -2.871232
2007-01-08 09:29:24 51°9.139 2°37.082 9.0713 3.632269 32.595444 -2.871232
2007-01-08 09:30:24 51°9.155 2°37.089 9.067 3.631648 32.59614 -2.871232
2007-01-08 09:31:24 51°9.166 2°37.147 9.0642 3.63144 32.594935 -2.871232
2007-01-08 09:32:24 51°9.159 2°37.154 9.0665 3.631337 32.595626 -2.871232
2007-01-08 09:33:24 51°9.15 2°37.149 9.0705 3.631337 32.594763 -2.871232
2007-01-08 09:34:24 51°9.139 2°37.149 9.0667 3.63144 32.594072 -2.871232
2007-01-08 09:35:24 51°9.125 2°37.149 9.0684 3.631233 32.592867 -2.871232
2007-01-08 09:36:24 51°9.107 2°37.152 9.0648 3.63113 32.59097 -2.871232
2007-01-08 09:37:24 51°9.095 2°37.249 9.0634 3.630612 32.590113 -2.871232
2007-01-08 09:38:24 51°9.168 2°37.463 9.0751 3.630612 32.585801 -2.871232
2007-01-08 09:39:24 51°9.258 2°37.747 9.0607 3.630301 32.587011 -2.871232
2007-01-08 09:40:24 51°9.359 2°38.038 9.0496 3.630197 32.592014 -2.871232
2007-01-08 09:41:24 51°9.456 2°38.334 9.0457 3.630094 32.598746 -2.871232
2007-01-08 09:42:24 51°9.552 2°38.632 9.0362 3.629265 32.598238 -2.871232
2007-01-08 09:43:24 51°9.65 2°38.928 9.0389 3.627401 32.583066 -2.871232
2007-01-08 09:44:24 51°9.75 2°39.222 9.0353 3.625329 32.564961 -2.871232
2007-01-08 09:45:24 51°9.845 2°39.519 9.0367 3.624707 32.555303 -2.871232
2007-01-08 09:46:24 51°9.941 2°39.816 9.029 3.624397 32.559098 -2.871232
2007-01-08 09:47:24 51°10.035 2°40.112 9.0211 3.622636 32.548406 -2.871232
2007-01-08 09:48:24 51°10.133 2°40.404 8.9904 3.608651 32.423344 -2.871232
2007-01-08 09:49:24 51°10.228 2°40.697 8.9844 3.580165 32.160299 -2.871232
2007-01-08 09:50:24 51°10.326 2°40.988 8.9924 3.577162 32.131166 -2.871232
2007-01-08 09:51:24 51°10.422 2°41.279 9.0075 3.600468 32.353625 -2.871232
2007-01-08 09:52:24 51°10.516 2°41.572 8.9997 3.603886 32.379187 -2.871232
2007-01-08 09:53:24 51°10.613 2°41.864 9.0064 3.604818 32.391074 -2.871232
2007-01-08 09:54:24 51°10.709 2°42.161 9.0121 3.611655 32.452492 -2.871232
2007-01-08 09:55:24 51°10.801 2°42.455 9.0134 3.616006 32.488208 -2.871232
2007-01-08 09:56:24 51°10.893 2°42.751 9.0081 3.617042 32.504586 -2.871232
2007-01-08 09:57:24 51°10.987 2°43.046 9.0109 3.614866 32.488019 -2.871232
2007-01-08 09:58:24 51°11.082 2°43.339 8.9916 3.611966 32.463341 -2.871232
2007-01-08 09:59:24 51°11.174 2°43.632 8.9841 3.607615 32.42933 -2.871232
2007-01-08 10:00:24 51°11.262 2°43.928 8.9838 3.605026 32.409469 -2.871232
2007-01-08 10:01:24 51°11.34 2°44.23 8.9756 3.601607 32.378744 -2.871232
2007-01-08 10:02:24 51°11.419 2°44.534 8.9565 3.5956 32.32986 -2.871232
2007-01-08 10:03:24 51°11.495 2°44.837 8.9417 3.59042 32.289241 -2.871232
2007-01-08 10:04:24 51°11.566 2°45.137 8.9293 3.584827 32.247034 -2.871232
2007-01-08 10:05:24 51°11.635 2°45.441 8.9161 3.579337 32.207552 -2.871232
2007-01-08 10:06:24 51°11.708 2°45.741 8.9034 3.575712 32.181562 -2.871232
2007-01-08 10:07:24 51°11.776 2°46.047 8.898 3.573537 32.165792 -2.871232
2007-01-08 10:08:24 51°11.845 2°46.35 8.8952 3.571051 32.151184 -2.871232
2007-01-08 10:09:24 51°11.917 2°46.653 8.881 3.569394 32.141442 -2.871232
2007-01-08 10:10:24 51°11.989 2°46.957 8.8731 3.569187 32.144499 -2.871232
2007-01-08 10:11:24 51°12.06 2°47.263 8.8726 3.566908 32.131098 -2.871232
2007-01-08 10:12:24 51°12.139 2°47.562 8.8646 3.565976 32.125186 -2.871232
2007-01-08 10:13:24 51°12.233 2°47.851 8.8566 3.565044 32.120984 -2.871232
2007-01-08 10:14:24 51°12.338 2°48.129 8.851 3.560901 32.091468 -2.871232
2007-01-08 10:15:24 51°12.444 2°48.41 8.8494 3.559451 32.081219 -2.871232
2007-01-08 10:16:24 51°12.547 2°48.695 8.8364 3.558933 32.081159 -2.871232
2007-01-08 10:17:24 51°12.643 2°48.982 8.8343 3.55769 32.072982 -2.871232
2007-01-08 10:18:24 51°12.741 2°49.269 8.8362 3.557483 32.071762 -2.871232
2007-01-08 10:19:24 51°12.84 2°49.556 8.8427 3.559348 32.087873 -2.871232
2007-01-08 10:20:24 51°12.935 2°49.848 8.8417 3.561212 32.101418 -2.871232
2007-01-08 10:21:24 51°13.034 2°50.136 8.8378 3.561108 32.104655 -2.871232
2007-01-08 10:22:24 51°13.136 2°50.423 8.8163 3.56173 32.116014 -2.871232
2007-01-08 10:23:24 51°13.234 2°50.718 8.8135 3.559866 32.114447 -2.871232
2007-01-08 10:24:24 51°13.336 2°51.007 8.7887 3.558519 32.110366 -2.871232
2007-01-08 10:25:24 51°13.436 2°51.294 8.7584 3.553652 32.082951 -2.871232
2007-01-08 10:26:24 51°13.534 2°51.582 8.733 3.544848 32.019436 -2.871232
2007-01-08 10:27:24 51°13.635 2°51.869 8.7122 3.53563 31.949139 -2.871232
2007-01-08 10:28:24 51°13.731 2°52.159 8.7062 3.529313 31.901929 -2.871232
2007-01-08 10:29:24 51°13.83 2°52.448 8.7037 3.527345 31.888141 -2.871232
2007-01-08 10:30:24 51°13.925 2°52.741 8.7025 3.525999 31.884001 -2.871232
2007-01-08 10:31:24 51°14.019 2°53.034 8.6931 3.527552 31.900457 -2.871232
2007-01-08 10:32:24 51°14.12 2°53.322 8.696 3.526931 31.895922 -2.871232
2007-01-08 10:33:24 51°14.221 2°53.604 8.6905 3.526206 31.892052 -2.871232
2007-01-08 10:34:24 51°14.321 2°53.89 8.6895 3.525792 31.885332 -2.871232
2007-01-08 10:35:24 51°14.434 2°54.166 8.6884 3.524238 31.873139 -2.871232
2007-01-08 10:36:24 51°14.487 2°54.485 8.6967 3.521856 31.842398 -2.871232
2007-01-08 10:37:24 51°14.444 2°54.789 8.6633 3.519785 31.836075 -2.871232
2007-01-08 10:38:24 51°14.364 2°55.065 8.6269 3.490994 31.567321 -2.871232
2007-01-08 10:39:24 51°14.244 2°55.303 8.5203 3.334127 30.043843 -2.871232
2007-01-08 10:40:24 51°14.097 2°55.436 8.4229 2.991489 26.715019 -2.871232
2007-01-08 10:41:24 51°13.98 2°55.521 8.3471 2.632778 23.294362 -2.871232
2007-01-08 10:42:24 51°13.87 2°55.6 8.4183 2.62823 23.280858 -2.871232
2007-01-08 10:43:24 51°13.773 2°55.69 8.333 2.781854 24.714401 -2.871232
2007-01-08 10:44:24 51°13.707 2°55.787 8.3344 1.758385 15.011563 -2.871232
2007-01-08 10:45:24 51°13.658 2°55.887 8.3738 1.399961 11.719572 -2.871232
2007-01-08 10:46:24 51°13.624 2°55.979 8.3983 1.462242 12.257379 -2.871232
2007-01-08 10:47:24 51°13.608 2°56.056 8.3336 1.517414 12.773241 -2.871232
2007-01-08 10:48:24 51°13.6 2°56.091 8.3946 1.693489 14.381257 -2.871232